createdAt,value
2019-06-10T00:00:13.802Z,0.00
2019-06-10T00:01:11.877Z,0.00
2019-06-10T00:02:10.902Z,0.00
2019-06-10T00:03:11.482Z,0.00
2019-06-10T00:04:12.491Z,0.00
2019-06-10T00:05:13.792Z,0.00
2019-06-10T00:06:11.516Z,0.00
2019-06-10T00:07:11.845Z,0.00
2019-06-10T00:08:11.822Z,0.00
2019-06-10T00:09:11.737Z,0.00
2019-06-10T00:10:10.774Z,0.00
2019-06-10T00:11:11.659Z,0.00
2019-06-10T00:12:12.375Z,0.00
2019-06-10T00:13:11.894Z,0.00
2019-06-10T00:14:10.718Z,0.00
2019-06-10T00:15:10.867Z,0.00
2019-06-10T00:16:11.508Z,0.00
2019-06-10T00:17:10.991Z,0.00
2019-06-10T00:18:33.313Z,0.00
2019-06-10T00:19:12.723Z,0.00
2019-06-10T00:20:11.205Z,0.00
2019-06-10T00:21:11.152Z,0.00
2019-06-10T00:22:11.534Z,0.00
2019-06-10T00:23:12.092Z,0.00
2019-06-10T00:24:11.797Z,0.00
2019-06-10T00:25:11.848Z,0.00
2019-06-10T00:26:12.187Z,0.00
2019-06-10T00:27:11.810Z,0.00
2019-06-10T00:28:12.139Z,0.00
2019-06-10T00:29:11.764Z,0.00
2019-06-10T00:30:12.086Z,0.00
2019-06-10T00:31:20.608Z,0.00
2019-06-10T00:32:21.320Z,0.00
2019-06-10T00:33:12.142Z,0.00
2019-06-10T00:34:12.096Z,0.00
2019-06-10T00:35:12.170Z,0.00
2019-06-10T00:36:21.371Z,0.00
2019-06-10T00:38:26.996Z,0.00
2019-06-10T00:39:27.010Z,0.00
2019-06-10T00:40:27.012Z,0.00
2019-06-10T00:41:26.932Z,0.00
2019-06-10T00:42:26.931Z,0.00
2019-06-10T00:43:26.929Z,0.00
2019-06-10T00:44:26.964Z,0.00
2019-06-10T00:45:26.942Z,0.00
2019-06-10T00:46:26.889Z,0.00
2019-06-10T00:47:26.899Z,0.00
2019-06-10T00:48:29.367Z,0.00
2019-06-10T00:49:27.904Z,0.00
2019-06-10T00:50:26.892Z,0.00
2019-06-10T00:51:26.914Z,0.00
2019-06-10T00:52:26.833Z,0.00
2019-06-10T00:53:26.848Z,0.00
2019-06-10T00:54:26.866Z,0.00
2019-06-10T00:55:26.843Z,0.00
2019-06-10T00:56:26.851Z,0.00
2019-06-10T00:57:26.808Z,0.00
2019-06-10T00:58:26.866Z,0.00
2019-06-10T00:59:26.757Z,0.00
2019-06-10T01:00:26.801Z,0.00
2019-06-10T01:01:26.762Z,0.00
2019-06-10T01:02:26.796Z,0.00
2019-06-10T01:03:26.724Z,0.00
2019-06-10T01:04:26.762Z,0.00
2019-06-10T01:05:26.705Z,0.00
2019-06-10T01:06:26.706Z,0.00
2019-06-10T01:08:43.776Z,0.00
2019-06-10T01:09:43.713Z,0.00
2019-06-10T01:10:44.354Z,0.00
2019-06-10T01:11:53.131Z,0.00
2019-06-10T01:12:43.681Z,0.00
2019-06-10T01:13:43.676Z,0.00
2019-06-10T01:14:43.656Z,0.00
2019-06-10T01:15:43.648Z,0.00
2019-06-10T01:16:43.645Z,0.00
2019-06-10T01:17:43.620Z,0.00
2019-06-10T01:18:43.660Z,0.00
2019-06-10T01:19:43.682Z,0.00
2019-06-10T01:20:43.635Z,0.00
2019-06-10T01:21:43.587Z,0.00
2019-06-10T01:22:43.637Z,0.00
2019-06-10T01:23:43.608Z,0.00
2019-06-10T01:24:43.589Z,0.00
2019-06-10T01:25:43.620Z,0.00
2019-06-10T01:26:43.547Z,0.00
2019-06-10T01:27:43.523Z,0.00
2019-06-10T01:28:43.649Z,0.00
2019-06-10T01:29:43.533Z,0.00
2019-06-10T01:30:43.524Z,0.00
2019-06-10T01:31:43.547Z,0.00
2019-06-10T01:32:43.538Z,0.00
2019-06-10T01:33:43.479Z,0.00
2019-06-10T01:34:43.446Z,0.00
2019-06-10T01:35:43.435Z,0.00
2019-06-10T01:36:43.495Z,0.00
2019-06-10T01:37:43.439Z,0.00
2019-06-10T01:38:43.423Z,0.00
2019-06-10T01:39:43.398Z,0.00
2019-06-10T01:40:43.428Z,0.00
2019-06-10T01:41:43.410Z,0.00
2019-06-10T01:42:43.381Z,0.00
2019-06-10T01:43:43.355Z,0.00
2019-06-10T01:44:43.351Z,0.00
2019-06-10T01:45:43.357Z,0.00
2019-06-10T01:46:43.328Z,0.00
2019-06-10T01:47:43.314Z,0.00
2019-06-10T01:48:47.855Z,0.00
2019-06-10T01:49:44.328Z,0.00
2019-06-10T01:50:43.322Z,0.00
2019-06-10T01:51:43.311Z,0.00
2019-06-10T01:52:43.284Z,0.00
2019-06-10T01:53:43.245Z,0.00
2019-06-10T01:54:43.249Z,0.00
2019-06-10T01:55:43.222Z,0.00
2019-06-10T01:56:43.270Z,0.00
2019-06-10T01:57:43.192Z,0.00
2019-06-10T01:58:43.184Z,0.00
2019-06-10T01:59:43.208Z,0.00
2019-06-10T02:00:43.182Z,0.00
2019-06-10T02:01:43.208Z,0.00
2019-06-10T02:02:44.532Z,0.00
2019-06-10T02:03:43.131Z,0.00
2019-06-10T02:04:43.147Z,0.00
2019-06-10T02:05:43.134Z,0.00
2019-06-10T02:06:43.123Z,0.00
2019-06-10T02:07:43.130Z,0.00
2019-06-10T02:08:43.078Z,0.00
2019-06-10T02:09:43.084Z,0.00
2019-06-10T02:10:43.099Z,0.00
2019-06-10T02:11:43.073Z,0.00
2019-06-10T02:12:43.069Z,0.00
2019-06-10T02:13:43.048Z,0.00
2019-06-10T02:14:43.022Z,0.00
2019-06-10T02:15:43.083Z,0.00
2019-06-10T02:16:43.018Z,0.00
2019-06-10T02:17:43.031Z,0.00
2019-06-10T02:18:56.879Z,0.00
2019-06-10T02:19:43.961Z,0.00
2019-06-10T02:20:42.963Z,0.00
2019-06-10T02:21:42.963Z,0.00
2019-06-10T02:22:42.952Z,0.00
2019-06-10T02:23:42.969Z,0.00
2019-06-10T02:24:42.920Z,4.00
2019-06-10T02:25:42.909Z,4.00
2019-06-10T02:26:42.917Z,4.00
2019-06-10T02:27:42.900Z,0.00
2019-06-10T02:28:42.900Z,4.00
2019-06-10T02:29:42.880Z,4.00
2019-06-10T02:30:50.845Z,4.00
2019-06-10T02:31:43.970Z,4.00
2019-06-10T02:32:43.087Z,4.00
2019-06-10T02:33:42.869Z,4.00
2019-06-10T02:35:00.868Z,4.00
2019-06-10T02:35:48.864Z,4.00
2019-06-10T02:36:44.585Z,4.00
2019-06-10T02:37:44.483Z,4.00
2019-06-10T02:38:44.409Z,4.00
2019-06-10T02:39:43.995Z,4.00
2019-06-10T02:40:43.515Z,8.00
2019-06-10T02:41:44.614Z,8.00
2019-06-10T02:42:43.608Z,8.00
2019-06-10T02:43:44.072Z,8.00
2019-06-10T02:44:44.577Z,8.00
2019-06-10T02:45:44.583Z,12.00
2019-06-10T02:46:43.976Z,12.00
2019-06-10T02:47:44.330Z,12.00
2019-06-10T02:48:43.656Z,12.00
2019-06-10T02:49:57.084Z,16.00
2019-06-10T02:50:44.283Z,16.00
2019-06-10T02:51:43.645Z,20.00
2019-06-10T02:52:44.499Z,16.00
2019-06-10T02:53:43.346Z,20.00
2019-06-10T02:54:43.823Z,20.00
2019-06-10T02:55:43.393Z,24.00
2019-06-10T02:56:44.217Z,28.00
2019-06-10T02:57:44.819Z,28.00
2019-06-10T02:58:44.833Z,24.00
2019-06-10T02:59:43.541Z,28.00
2019-06-10T03:00:48.116Z,24.00
2019-06-10T03:01:44.179Z,24.00
2019-06-10T03:02:45.131Z,24.00
2019-06-10T03:03:48.319Z,28.00
2019-06-10T03:04:43.483Z,36.00
2019-06-10T03:05:46.460Z,44.00
2019-06-10T03:06:44.820Z,56.00
2019-06-10T03:07:44.422Z,56.00
2019-06-10T03:08:43.629Z,60.00
2019-06-10T03:09:42.829Z,60.00
2019-06-10T03:10:44.256Z,72.00
2019-06-10T03:11:44.838Z,88.00
2019-06-10T03:12:42.529Z,100.00
2019-06-10T03:13:42.649Z,116.00
2019-06-10T03:14:42.439Z,116.00
2019-06-10T03:15:42.742Z,108.00
2019-06-10T03:16:42.400Z,104.00
2019-06-10T03:17:43.071Z,96.00
2019-06-10T03:18:43.399Z,88.00
2019-06-10T03:19:50.110Z,80.00
2019-06-10T03:20:43.331Z,80.00
2019-06-10T03:21:42.895Z,88.00
2019-06-10T03:22:42.451Z,104.00
2019-06-10T03:23:42.775Z,104.00
2019-06-10T03:24:42.305Z,116.00
2019-06-10T03:25:42.322Z,132.00
2019-06-10T03:26:42.803Z,128.00
2019-06-10T03:27:42.530Z,140.00
2019-06-10T03:28:42.769Z,160.00
2019-06-10T03:29:42.268Z,172.00
2019-06-10T03:30:53.359Z,192.00
2019-06-10T03:31:48.153Z,188.00
2019-06-10T03:32:47.093Z,196.00
2019-06-10T03:33:47.424Z,184.00
2019-06-10T03:34:47.448Z,184.00
2019-06-10T03:35:42.414Z,184.00
2019-06-10T03:36:42.958Z,172.00
2019-06-10T03:37:42.467Z,180.00
2019-06-10T03:38:43.204Z,184.00
2019-06-10T03:39:42.733Z,172.00
2019-06-10T03:40:43.412Z,152.00
2019-06-10T03:41:42.450Z,124.00
2019-06-10T03:42:42.814Z,104.00
2019-06-10T03:43:42.960Z,104.00
2019-06-10T03:44:43.083Z,112.00
2019-06-10T03:45:42.537Z,136.00
2019-06-10T03:46:43.166Z,160.00
2019-06-10T03:47:42.647Z,160.00
2019-06-10T03:48:43.332Z,172.00
2019-06-10T03:49:51.913Z,216.00
2019-06-10T03:50:43.207Z,284.00
2019-06-10T03:51:42.822Z,324.00
2019-06-10T03:52:43.176Z,312.00
2019-06-10T03:53:42.578Z,284.00
2019-06-10T03:54:43.232Z,264.00
2019-06-10T03:55:42.418Z,264.00
2019-06-10T03:56:43.017Z,272.00
2019-06-10T03:57:42.451Z,304.00
2019-06-10T03:58:43.159Z,348.00
2019-06-10T03:59:42.260Z,384.00
2019-06-10T04:00:43.045Z,416.00
2019-06-10T04:01:42.699Z,432.00
2019-06-10T04:02:43.057Z,448.00
2019-06-10T04:03:42.719Z,488.00
2019-06-10T04:04:42.984Z,564.00
2019-06-10T04:05:42.319Z,672.00
2019-06-10T04:06:44.179Z,784.00
2019-06-10T04:07:42.727Z,912.00
2019-06-10T04:08:43.259Z,1012.00
2019-06-10T04:09:42.536Z,1096.00
2019-06-10T04:10:42.950Z,1140.00
2019-06-10T04:11:43.178Z,1124.00
2019-06-10T04:12:43.449Z,1104.00
2019-06-10T04:13:43.129Z,1136.00
2019-06-10T04:14:42.052Z,1272.00
2019-06-10T04:15:43.118Z,1440.00
2019-06-10T04:16:43.310Z,1596.00
2019-06-10T04:17:42.768Z,1724.00
2019-06-10T04:18:43.016Z,1772.00
2019-06-10T04:19:42.089Z,1768.00
2019-06-10T04:20:42.923Z,1784.00
2019-06-10T04:21:43.253Z,1796.00
2019-06-10T04:22:41.662Z,1868.00
2019-06-10T04:23:42.354Z,1964.00
2019-06-10T04:24:43.102Z,2112.00
2019-06-10T04:25:42.741Z,2260.00
2019-06-10T04:26:43.473Z,2332.00
2019-06-10T04:27:42.501Z,2368.00
2019-06-10T04:28:42.978Z,2288.00
2019-06-10T04:29:42.195Z,2100.00
2019-06-10T04:30:43.297Z,1956.00
2019-06-10T04:31:42.498Z,1972.00
2019-06-10T04:32:42.950Z,2056.00
2019-06-10T04:33:42.101Z,2188.00
2019-06-10T04:34:43.295Z,2376.00
2019-06-10T04:35:42.778Z,2612.00
2019-06-10T04:36:42.248Z,2912.00
2019-06-10T04:37:42.846Z,3240.00
2019-06-10T04:38:43.225Z,3460.00
2019-06-10T04:39:42.797Z,3596.00
2019-06-10T04:40:43.067Z,3732.00
2019-06-10T04:41:42.654Z,3752.00
2019-06-10T04:42:43.483Z,3564.00
2019-06-10T04:43:43.265Z,3272.00
2019-06-10T04:44:42.289Z,2972.00
2019-06-10T04:45:42.978Z,2748.00
2019-06-10T04:46:42.825Z,2656.00
2019-06-10T04:47:43.144Z,2600.00
2019-06-10T04:48:42.710Z,2532.00
2019-06-10T04:49:42.832Z,2496.00
2019-06-10T04:50:45.974Z,2456.00
2019-06-10T04:51:43.397Z,2368.00
2019-06-10T04:52:43.146Z,2308.00
2019-06-10T04:53:43.595Z,2360.00
2019-06-10T04:54:42.135Z,2532.00
2019-06-10T04:55:43.111Z,2748.00
2019-06-10T04:56:42.868Z,2904.00
2019-06-10T04:57:43.049Z,2920.00
2019-06-10T04:58:43.282Z,2732.00
2019-06-10T04:59:42.865Z,2448.00
2019-06-10T05:00:42.905Z,2184.00
2019-06-10T05:01:42.643Z,2024.00
2019-06-10T05:02:43.036Z,1956.00
2019-06-10T05:03:43.384Z,1968.00
2019-06-10T05:04:42.595Z,1988.00
2019-06-10T05:05:43.084Z,1992.00
2019-06-10T05:06:42.252Z,1976.00
2019-06-10T05:07:42.787Z,1952.00
2019-06-10T05:08:42.681Z,1916.00
2019-06-10T05:09:42.238Z,1816.00
2019-06-10T05:10:42.401Z,1612.00
2019-06-10T05:11:43.085Z,1348.00
2019-06-10T05:12:43.203Z,1140.00
2019-06-10T05:13:49.662Z,1024.00
2019-06-10T05:14:52.539Z,964.00
2019-06-10T05:15:49.252Z,920.00
2019-06-10T05:16:43.074Z,916.00
2019-06-10T05:17:43.776Z,944.00
2019-06-10T05:18:42.373Z,1044.00
2019-06-10T05:19:42.863Z,1184.00
2019-06-10T05:20:54.005Z,1340.00
2019-06-10T05:21:42.545Z,1448.00
2019-06-10T05:22:42.486Z,1436.00
2019-06-10T05:23:43.023Z,1336.00
2019-06-10T05:24:42.430Z,1228.00
2019-06-10T05:25:42.783Z,1228.00
2019-06-10T05:26:42.545Z,1292.00
2019-06-10T05:27:42.919Z,1360.00
2019-06-10T05:28:43.317Z,1356.00
2019-06-10T05:29:42.199Z,1292.00
2019-06-10T05:30:42.601Z,1188.00
2019-06-10T05:31:43.501Z,1180.00
2019-06-10T05:32:42.993Z,1204.00
2019-06-10T05:33:42.677Z,1344.00
2019-06-10T05:34:43.523Z,1480.00
2019-06-10T05:35:42.711Z,1560.00
2019-06-10T05:36:43.300Z,1548.00
2019-06-10T05:37:42.283Z,1484.00
2019-06-10T05:38:43.193Z,1424.00
2019-06-10T05:39:42.406Z,1412.00
2019-06-10T05:40:42.768Z,1476.00
2019-06-10T05:41:43.048Z,1600.00
2019-06-10T05:42:42.656Z,1740.00
2019-06-10T05:43:42.790Z,1800.00
2019-06-10T05:44:42.921Z,1784.00
2019-06-10T05:45:42.419Z,1792.00
2019-06-10T05:46:43.290Z,1828.00
2019-06-10T05:47:42.685Z,1856.00
2019-06-10T05:48:40.768Z,1836.00
2019-06-10T05:49:42.929Z,1776.00
2019-06-10T05:50:42.760Z,1736.00
2019-06-10T05:51:42.281Z,1692.00
2019-06-10T05:52:42.740Z,1712.00
2019-06-10T05:53:42.247Z,1832.00
2019-06-10T05:54:42.964Z,1996.00
2019-06-10T05:55:42.770Z,2164.00
2019-06-10T05:56:43.025Z,2240.00
2019-06-10T05:57:42.832Z,2276.00
2019-06-10T05:58:43.347Z,2304.00
2019-06-10T05:59:43.136Z,2356.00
2019-06-10T06:00:42.723Z,2404.00
2019-06-10T06:01:42.892Z,2428.00
2019-06-10T06:02:43.097Z,2544.00
2019-06-10T06:03:40.618Z,2704.00
2019-06-10T06:04:42.682Z,2944.00
2019-06-10T06:05:40.595Z,3312.00
2019-06-10T06:06:42.453Z,3796.00
2019-06-10T06:07:42.356Z,4348.00
2019-06-10T06:08:42.782Z,4692.00
2019-06-10T06:09:42.582Z,4936.00
2019-06-10T06:10:42.394Z,5300.00
2019-06-10T06:11:42.814Z,5624.00
2019-06-10T06:12:42.487Z,5680.00
2019-06-10T06:13:42.984Z,5492.00
2019-06-10T06:14:42.452Z,5412.00
2019-06-10T06:15:42.422Z,5584.00
2019-06-10T06:16:42.991Z,5840.00
2019-06-10T06:17:42.956Z,6072.00
2019-06-10T06:18:42.215Z,6352.00
2019-06-10T06:19:43.161Z,6620.00
2019-06-10T06:20:40.407Z,6604.00
2019-06-10T06:21:47.071Z,6568.00
2019-06-10T06:22:42.888Z,6464.00
2019-06-10T06:23:40.395Z,6160.00
2019-06-10T06:24:42.631Z,5656.00
2019-06-10T06:25:44.283Z,5000.00
2019-06-10T06:26:43.278Z,4336.00
2019-06-10T06:27:42.082Z,3956.00
2019-06-10T06:28:42.906Z,3872.00
2019-06-10T06:29:42.964Z,3760.00
2019-06-10T06:30:42.316Z,3852.00
2019-06-10T06:31:42.722Z,4148.00
2019-06-10T06:32:40.428Z,4588.00
2019-06-10T06:33:42.970Z,5232.00
2019-06-10T06:34:40.257Z,6048.00
2019-06-10T06:35:45.547Z,6684.00
2019-06-10T06:36:42.277Z,6980.00
2019-06-10T06:37:42.725Z,7084.00
2019-06-10T06:38:40.213Z,7268.00
2019-06-10T06:39:42.754Z,7236.00
2019-06-10T06:40:40.204Z,7028.00
2019-06-10T06:41:42.399Z,6584.00
2019-06-10T06:42:40.202Z,6140.00
2019-06-10T06:43:44.384Z,5728.00
2019-06-10T06:44:40.139Z,5692.00
2019-06-10T06:45:42.647Z,6084.00
2019-06-10T06:46:42.664Z,6428.00
2019-06-10T06:47:40.158Z,6956.00
2019-06-10T06:48:41.004Z,7460.00
2019-06-10T06:49:42.381Z,8004.00
2019-06-10T06:50:59.090Z,8424.00
2019-06-10T06:51:51.819Z,8576.00
2019-06-10T06:53:15.360Z,8468.00
2019-06-10T06:53:50.371Z,8424.00
2019-06-10T06:54:42.431Z,8076.00
2019-06-10T06:55:40.041Z,7884.00
2019-06-10T06:56:41.210Z,7676.00
2019-06-10T06:57:40.162Z,7500.00
2019-06-10T06:58:40.713Z,7088.00
2019-06-10T06:59:40.850Z,6792.00
2019-06-10T07:00:57.402Z,6792.00
2019-06-10T07:01:44.039Z,6976.00
2019-06-10T07:02:40.909Z,7216.00
2019-06-10T07:03:41.810Z,7472.00
2019-06-10T07:04:40.465Z,7808.00
2019-06-10T07:05:41.026Z,8128.00
2019-06-10T07:06:40.357Z,8624.00
2019-06-10T07:07:41.090Z,9332.00
2019-06-10T07:08:41.485Z,10184.00
2019-06-10T07:09:41.220Z,10984.00
2019-06-10T07:10:41.436Z,11352.00
2019-06-10T07:11:41.113Z,11520.00
2019-06-10T07:12:41.073Z,11576.00
2019-06-10T07:13:43.395Z,11068.00
2019-06-10T07:14:44.737Z,10860.00
2019-06-10T07:15:42.183Z,9572.00
2019-06-10T07:16:44.322Z,7528.00
2019-06-10T07:17:45.143Z,6896.00
2019-06-10T07:18:48.742Z,6740.00
2019-06-10T07:19:42.116Z,7516.00
2019-06-10T07:20:40.972Z,9212.00
2019-06-10T07:21:57.986Z,10012.00
2019-06-10T07:22:42.779Z,11408.00
2019-06-10T07:23:45.164Z,11548.00
2019-06-10T07:24:43.055Z,11528.00
2019-06-10T07:25:46.542Z,10940.00
2019-06-10T07:26:45.340Z,10496.00
2019-06-10T07:27:45.131Z,9992.00
2019-06-10T07:28:45.075Z,8808.00
2019-06-10T07:29:46.487Z,7828.00
2019-06-10T07:30:47.772Z,6928.00
2019-06-10T07:31:43.485Z,6140.00
2019-06-10T07:32:41.532Z,5776.00
2019-06-10T07:33:43.045Z,5508.00
2019-06-10T07:34:42.274Z,5564.00
2019-06-10T07:35:41.606Z,5796.00
2019-06-10T07:36:40.858Z,6412.00
2019-06-10T07:37:41.059Z,6884.00
2019-06-10T07:38:41.847Z,6824.00
2019-06-10T07:39:41.730Z,6260.00
2019-06-10T07:40:39.590Z,5828.00
2019-06-10T07:41:39.654Z,5788.00
2019-06-10T07:42:39.558Z,6412.00
2019-06-10T07:43:42.555Z,7328.00
2019-06-10T07:44:43.158Z,7768.00
2019-06-10T07:45:41.592Z,7732.00
2019-06-10T07:46:43.460Z,7592.00
2019-06-10T07:47:41.723Z,7900.00
2019-06-10T07:48:41.094Z,7928.00
2019-06-10T07:49:39.481Z,7376.00
2019-06-10T07:50:39.478Z,6904.00
2019-06-10T07:51:39.565Z,6844.00
2019-06-10T07:52:39.448Z,6792.00
2019-06-10T07:53:40.023Z,6436.00
2019-06-10T07:54:39.459Z,6108.00
2019-06-10T07:55:39.595Z,5772.00
2019-06-10T07:56:45.190Z,5696.00
2019-06-10T07:57:43.609Z,5792.00
2019-06-10T07:58:40.122Z,5952.00
2019-06-10T07:59:39.574Z,6032.00
2019-06-10T08:00:40.807Z,5800.00
2019-06-10T08:01:48.106Z,5696.00
2019-06-10T08:02:42.829Z,5840.00
2019-06-10T08:03:39.858Z,6184.00
2019-06-10T08:04:39.984Z,6968.00
2019-06-10T08:05:40.107Z,7948.00
2019-06-10T08:06:39.856Z,8408.00
2019-06-10T08:07:39.295Z,8856.00
2019-06-10T08:08:39.333Z,9208.00
2019-06-10T08:09:39.277Z,9176.00
2019-06-10T08:10:39.332Z,9256.00
2019-06-10T08:11:39.371Z,9692.00
2019-06-10T08:12:39.337Z,10048.00
2019-06-10T08:13:39.360Z,9848.00
2019-06-10T08:14:39.550Z,9144.00
2019-06-10T08:15:39.750Z,8388.00
2019-06-10T08:16:39.871Z,8352.00
2019-06-10T08:17:40.395Z,8660.00
2019-06-10T08:19:07.067Z,9040.00
2019-06-10T08:19:45.413Z,9436.00
2019-06-10T08:20:43.516Z,9876.00
2019-06-10T08:21:40.649Z,10260.00
2019-06-10T08:22:49.186Z,10416.00
2019-06-10T08:23:41.037Z,10516.00
2019-06-10T08:24:39.390Z,10552.00
2019-06-10T08:25:40.370Z,10576.00
2019-06-10T08:26:39.377Z,10696.00
2019-06-10T08:27:40.281Z,10932.00
2019-06-10T08:28:39.650Z,11116.00
2019-06-10T08:29:39.067Z,11108.00
2019-06-10T08:30:39.864Z,11044.00
2019-06-10T08:31:39.083Z,11080.00
2019-06-10T08:32:40.048Z,11380.00
2019-06-10T08:33:39.092Z,11752.00
2019-06-10T08:34:42.979Z,12228.00
2019-06-10T08:35:48.540Z,12576.00
2019-06-10T08:36:42.172Z,12412.00
2019-06-10T08:37:40.808Z,12300.00
2019-06-10T08:38:40.259Z,12408.00
2019-06-10T08:39:40.184Z,12476.00
2019-06-10T08:40:40.643Z,12720.00
2019-06-10T08:41:39.011Z,13000.00
2019-06-10T08:42:39.014Z,13136.00
2019-06-10T08:43:38.952Z,13300.00
2019-06-10T08:44:38.921Z,13080.00
2019-06-10T08:45:38.987Z,12864.00
2019-06-10T08:46:38.885Z,12716.00
2019-06-10T08:47:39.224Z,12740.00
2019-06-10T08:48:39.050Z,12476.00
2019-06-10T08:49:39.139Z,12176.00
2019-06-10T08:50:39.336Z,12300.00
2019-06-10T08:51:39.688Z,12556.00
2019-06-10T08:52:56.917Z,12696.00
2019-06-10T08:53:42.548Z,12648.00
2019-06-10T08:54:41.276Z,12600.00
2019-06-10T08:55:42.206Z,12692.00
2019-06-10T08:56:40.056Z,12904.00
2019-06-10T08:57:42.437Z,13036.00
2019-06-10T08:58:40.892Z,13176.00
2019-06-10T08:59:39.996Z,13436.00
2019-06-10T09:00:40.168Z,13540.00
2019-06-10T09:01:39.464Z,13620.00
2019-06-10T09:02:40.634Z,13612.00
2019-06-10T09:03:40.162Z,13680.00
2019-06-10T09:04:39.259Z,13740.00
2019-06-10T09:05:39.577Z,13784.00
2019-06-10T09:06:50.604Z,13764.00
2019-06-10T09:07:49.995Z,13716.00
2019-06-10T09:10:02.973Z,13520.00
2019-06-10T09:11:12.953Z,13464.00
2019-06-10T09:12:03.453Z,13472.00
2019-06-10T09:13:02.789Z,13512.00
2019-06-10T09:14:02.576Z,13628.00
2019-06-10T09:15:13.049Z,13740.00
2019-06-10T09:16:16.650Z,13968.00
2019-06-10T09:18:23.662Z,14020.00
2019-06-10T09:19:23.667Z,14060.00
2019-06-10T09:20:23.622Z,14068.00
2019-06-10T09:21:23.912Z,14016.00
2019-06-10T09:22:23.760Z,13572.00
2019-06-10T09:23:25.630Z,13052.00
2019-06-10T09:24:23.573Z,12652.00
2019-06-10T09:25:23.562Z,12472.00
2019-06-10T09:26:23.557Z,12508.00
2019-06-10T09:27:26.663Z,12656.00
2019-06-10T09:28:23.654Z,12748.00
2019-06-10T09:29:33.491Z,12460.00
2019-06-10T09:30:23.634Z,12260.00
2019-06-10T09:31:33.531Z,12216.00
2019-06-10T09:32:32.557Z,12144.00
2019-06-10T09:34:43.042Z,12312.00
2019-06-10T09:35:50.948Z,12652.00
2019-06-10T09:36:51.805Z,12676.00
2019-06-10T09:38:33.749Z,13064.00
2019-06-10T09:39:48.497Z,13244.00
2019-06-10T09:40:34.318Z,13436.00
2019-06-10T09:41:41.120Z,13412.00
2019-06-10T09:42:34.167Z,13132.00
2019-06-10T09:43:46.876Z,12788.00
2019-06-10T09:44:34.139Z,12600.00
2019-06-10T09:45:45.902Z,12624.00
2019-06-10T09:46:33.327Z,13120.00
2019-06-10T09:47:34.747Z,13924.00
2019-06-10T09:48:33.724Z,15264.00
2019-06-10T09:49:33.649Z,16448.00
2019-06-10T09:50:33.414Z,16576.00
2019-06-10T09:51:33.057Z,16608.00
2019-06-10T09:52:33.078Z,16512.00
2019-06-10T09:53:41.367Z,15904.00
2019-06-10T09:54:34.004Z,15520.00
2019-06-10T09:55:33.050Z,15392.00
2019-06-10T09:56:33.209Z,14388.00
2019-06-10T09:57:33.019Z,13556.00
2019-06-10T09:58:33.229Z,12568.00
2019-06-10T09:59:33.202Z,12704.00
2019-06-10T10:00:48.825Z,12452.00
2019-06-10T10:04:02.469Z,12052.00
2019-06-10T10:05:12.308Z,12636.00
2019-06-10T10:07:04.120Z,13360.00
2019-06-10T10:08:12.850Z,13448.00
2019-06-10T10:09:12.633Z,13208.00
2019-06-10T10:11:21.258Z,13872.00
2019-06-10T10:12:22.703Z,13640.00
2019-06-10T10:13:35.969Z,13472.00
2019-06-10T10:14:30.083Z,14916.00
2019-06-10T10:15:31.592Z,15744.00
2019-06-10T10:16:22.454Z,16448.00
2019-06-10T10:17:23.012Z,16576.00
2019-06-10T10:18:23.570Z,16544.00
2019-06-10T10:19:23.030Z,16992.00
2019-06-10T10:20:22.818Z,17248.00
2019-06-10T10:21:22.249Z,17504.00
2019-06-10T10:22:22.751Z,17344.00
2019-06-10T10:23:22.681Z,17120.00
2019-06-10T10:24:22.890Z,16704.00
2019-06-10T10:25:20.478Z,16192.00
2019-06-10T10:26:20.480Z,15456.00
2019-06-10T10:27:20.521Z,14456.00
2019-06-10T10:28:23.042Z,13580.00
2019-06-10T10:29:21.420Z,12708.00
2019-06-10T10:30:20.494Z,11956.00
2019-06-10T10:31:23.037Z,11488.00
2019-06-10T10:32:22.591Z,11044.00
2019-06-10T10:33:23.873Z,10984.00
2019-06-10T10:34:23.569Z,10772.00
2019-06-10T10:35:20.369Z,10796.00
2019-06-10T10:36:22.425Z,10808.00
2019-06-10T10:37:22.751Z,10916.00
2019-06-10T10:38:22.727Z,11172.00
2019-06-10T10:39:22.016Z,11984.00
2019-06-10T10:40:32.587Z,12556.00
2019-06-10T10:41:23.212Z,13008.00
2019-06-10T10:42:41.679Z,13460.00
2019-06-10T10:43:28.859Z,13744.00
2019-06-10T10:44:21.700Z,13764.00
2019-06-10T10:45:22.668Z,13724.00
2019-06-10T10:48:14.101Z,13684.00
2019-06-10T10:49:14.646Z,13700.00
2019-06-10T10:50:13.986Z,13516.00
2019-06-10T10:51:13.407Z,13492.00
2019-06-10T10:52:13.056Z,13468.00
2019-06-10T10:53:13.644Z,13460.00
2019-06-10T10:54:28.408Z,13440.00
2019-06-10T10:55:14.170Z,13380.00
2019-06-10T10:56:13.269Z,13264.00
2019-06-10T10:57:13.755Z,13136.00
2019-06-10T10:58:13.066Z,12832.00
2019-06-10T10:59:13.478Z,12448.00
2019-06-10T11:00:13.064Z,12092.00
2019-06-10T11:01:15.091Z,11896.00
2019-06-10T11:02:13.072Z,11872.00
2019-06-10T11:03:13.366Z,12004.00
2019-06-10T11:04:13.361Z,12324.00
2019-06-10T11:05:12.942Z,12736.00
2019-06-10T11:06:23.469Z,13232.00
2019-06-10T11:07:13.064Z,13716.00
2019-06-10T11:08:14.211Z,14112.00
2019-06-10T11:09:13.709Z,14400.00
2019-06-10T11:10:13.099Z,14580.00
2019-06-10T11:11:23.651Z,14832.00
2019-06-10T11:12:12.855Z,15076.00
2019-06-10T11:13:12.728Z,15188.00
2019-06-10T11:14:14.988Z,15276.00
2019-06-10T11:16:33.065Z,15712.00
2019-06-10T11:17:43.376Z,15904.00
2019-06-10T11:18:30.789Z,16096.00
2019-06-10T11:19:32.391Z,16288.00
2019-06-10T11:20:33.587Z,16288.00
2019-06-10T11:21:32.880Z,16384.00
2019-06-10T11:22:32.892Z,16384.00
2019-06-10T11:23:34.249Z,16288.00
2019-06-10T11:24:37.751Z,16128.00
2019-06-10T11:26:43.131Z,15712.00
2019-06-10T11:27:43.125Z,15744.00
2019-06-10T11:28:42.844Z,15840.00
2019-06-10T11:29:42.259Z,16000.00
2019-06-10T11:30:42.593Z,16256.00
2019-06-10T11:31:42.592Z,16608.00
2019-06-10T11:32:43.243Z,16768.00
2019-06-10T11:33:43.428Z,16800.00
2019-06-10T11:34:42.908Z,16640.00
2019-06-10T11:35:42.803Z,16448.00
2019-06-10T11:36:42.638Z,16480.00
2019-06-10T11:37:42.268Z,16480.00
2019-06-10T11:38:41.688Z,16704.00
2019-06-10T11:39:41.694Z,16960.00
2019-06-10T11:40:42.832Z,17216.00
2019-06-10T11:41:52.861Z,17088.00
2019-06-10T11:45:10.292Z,15840.00
2019-06-10T11:46:19.623Z,15304.00
2019-06-10T11:47:19.814Z,14596.00
2019-06-10T11:48:10.262Z,14020.00
2019-06-10T11:49:12.413Z,13728.00
2019-06-10T11:50:12.141Z,13232.00
2019-06-10T11:51:12.737Z,12908.00
2019-06-10T11:52:12.512Z,13128.00
2019-06-10T11:53:12.616Z,16864.00
2019-06-10T11:54:12.648Z,44512.00
2019-06-10T11:55:18.321Z,68608.00
2019-06-10T11:56:13.111Z,64960.00
2019-06-10T11:57:12.368Z,61856.00
2019-06-10T11:58:10.405Z,66976.00
2019-06-10T11:59:13.347Z,51424.00
2019-06-10T12:00:14.818Z,40448.00
2019-06-10T12:01:12.964Z,42336.00
2019-06-10T12:02:10.137Z,47488.00
2019-06-10T12:03:10.159Z,44704.00
2019-06-10T12:04:17.762Z,37728.00
2019-06-10T12:05:12.823Z,41248.00
2019-06-10T12:06:10.066Z,41536.00
2019-06-10T12:07:10.144Z,45056.00
2019-06-10T12:08:12.806Z,43968.00
2019-06-10T12:09:10.133Z,35008.00
2019-06-10T12:10:12.656Z,36032.00
2019-06-10T12:11:12.410Z,34880.00
2019-06-10T12:12:12.674Z,35232.00
2019-06-10T12:13:10.254Z,42688.00
2019-06-10T12:14:19.208Z,44992.00
2019-06-10T12:15:18.734Z,42624.00
2019-06-10T12:17:14.961Z,38944.00
2019-06-10T12:17:40.042Z,34976.00
2019-06-10T12:18:13.023Z,36992.00
2019-06-10T12:19:12.508Z,36928.00
2019-06-10T12:20:13.072Z,40384.00
2019-06-10T12:21:12.763Z,41536.00
2019-06-10T12:22:10.006Z,36384.00
2019-06-10T12:23:09.904Z,37056.00
2019-06-10T12:24:12.479Z,31488.00
2019-06-10T12:25:30.393Z,33600.00
2019-06-10T12:26:10.824Z,28832.00
2019-06-10T12:27:09.768Z,26464.00
2019-06-10T12:28:09.759Z,25024.00
2019-06-10T12:29:12.257Z,22432.00
2019-06-10T12:30:09.729Z,20576.00
2019-06-10T12:31:13.039Z,21248.00
2019-06-10T12:32:09.733Z,23168.00
2019-06-10T12:33:09.703Z,22368.00
2019-06-10T12:34:12.329Z,22464.00
2019-06-10T12:35:22.816Z,24032.00